PGUM/GUM METAR and TAF weather

Enter ICAO airport designator
Station Type Date Time Source
PGUM METAR 2021/07/30 07:54 UTC NOAA

PGUM 300754Z 33005KT 10SM FEW021 SCT048 29/24 A2980 RMK AO2 SLP083 T02890244 $


Station Type Date Time Source
PGUM Decoded METAR 2021/07/30 07:54 UTC NOAA

Agana, Guam International Airport, GU, United States (PGUM) 13-29N 144-48E
Jul 30, 2021 - 03:54 AM EDT / 2021.07.30 0754 UTC
Wind: from the NNW (330 degrees) at 6 MPH (5 KT):0
Visibility: 10 mile(s):0
Sky conditions: partly cloudy
Temperature: 84.0 F (28.9 C)
Dew Point: 75.9 F (24.4 C)
Relative Humidity: 76%
Pressure (altimeter): 29.8 in. Hg (1009 hPa)
ob: PGUM 300754Z 33005KT 10SM FEW021 SCT048 29/24 A2980 RMK AO2 SLP083 T02890244
cycle: 8

Station Type Date Time Source
PGUM TAF 2021/07/30 06:33 UTC NOAA

TAF PGUM 300527Z 3006/3112 28007KT P6SM VCSH SCT018 SCT040 OVC130
FM300800 VRB05KT P6SM VCSH SCT020 SCT040

Example: see airport list